Airport View

Enter AWOS ICAO identifier for current METAR.

ex. KFNL

KLUX 191955Z AUTO 30007KT 10SM CLR 12/M04 A2997 RMK AO2

19 Jan 2020 19:58

Frequency: 123.975

Phone: 864-682-3639

Other Area AWOS: KGRD - KEOE - KSPA - KGYH

TAF KGSP 191723Z 1918/2018 30008KT P6SM SKC FM200000 36008KT P6SM SKC FM201200 01004KT P6SM SKC